Terminal Aerodrome Forecast
Issued by NWS Houston/Galveston, TX

Current Version | Previous Version | Text Only | Print | Product List | Glossary On
Versions: 1 2 3 4 5 6 7 8 9 10 11 12 13 14 15 16 17 18 19 20 21 22 23
000
FTUS44 KHGX 201130
TAFGLS
TAF
KGLS 201130Z 2012/2112 06006KT P6SM SCT024=

USA.gov is the U.S. government's official web portal to all federal, state and local government web resources and services.